Latest Weather Observations for Hobart Airport

IDT60901

Issued at 12:01 am EST Wednesday 24 July 2019 (issued every 10 minutes, with the page automatically refreshed every 10 minutes)

About weather observations | Map of Hobart area stations | Latest observations for Hobart area | Other Formats
Station Details ID: 094008 Name: HOBART AIRPORT Lat: -42.83 Lon: 147.50 Height: 4.0 m
Data from the previous 72 hours. | See also: Recent months at Hobart Airport
Date/Time
EST
Temp
°C
App
Temp
°C
Dew
Point
°C
Rel
Hum
%
Delta-T
°C
Wind Press
QNH
hPa
Press
MSL
hPa
Rain since
9am
mm
Dir  Spd
km/h
Gust
km/h
Spd
kts
Gust
kts
23/11:30pm 7.3 3.0 0.8 63 2.6 N 13 15 7 8 1004.9 1004.9 0.0
23/11:00pm 6.2 1.8 0.6 67 2.2 N 13 17 7 9 1004.2 1004.2 0.0
23/10:30pm 7.9 2.7 0.1 58 3.1 NNW 17 28 9 15 1003.7 1003.7 0.0
23/10:00pm 8.2 2.9 -0.8 53 3.5 WNW 17 20 9 11 1003.7 1003.7 0.0
23/09:30pm 7.6 2.3 -0.6 56 3.2 NW 17 24 9 13 1003.3 1003.3 0.0
23/09:00pm 6.8 2.0 0.2 63 2.6 NW 15 17 8 9 1003.2 1003.2 0.0
23/08:30pm 7.4 3.1 0.9 63 2.6 NNW 13 17 7 9 1003.1 1003.1 0.0
23/08:00pm 6.9 3.7 0.6 64 2.5 NNW 7 13 4 7 1003.1 1003.1 0.0
23/07:30pm 7.9 3.9 0.4 59 3.0 NNW 11 19 6 10 1003.0 1003.0 0.0
23/07:00pm 8.7 2.1 -0.1 54 3.5 NW 24 32 13 17 1002.2 1002.2 0.0
23/06:30pm 8.6 2.1 0.4 56 3.3 NW 24 30 13 16 1002.2 1002.2 0.0
23/06:00pm 7.8 3.6 1.7 65 2.5 NNW 13 22 7 12 1002.1 1002.1 0.0
23/05:30pm 8.4 4.5 1.3 61 2.9 NNW 11 17 6 9 1001.6 1001.6 0.0
23/05:00pm 9.2 3.2 0.9 56 3.4 W 22 30 12 16 1001.1 1001.1 0.0
23/04:30pm 10.4 3.7 -0.9 45 4.5 NW 24 30 13 16 1000.8 1000.8 0.0
23/04:00pm 11.0 4.4 -0.3 45 4.6 NW 24 33 13 18 1000.5 1000.5 0.0
23/03:30pm 11.4 3.5 -1.4 41 5.1 NW 30 41 16 22 1000.1 1000.1 0.0
23/03:06pm 12.0 3.9 -0.1 43 5.0 NW 32 52 17 28 999.5 999.5 0.0
23/03:00pm 12.3 4.0 -0.3 42 5.2 NW 33 50 18 27 999.4 999.4 0.0
23/02:55pm 12.3 4.3 0.3 43 5.0 NW 32 50 17 27 999.4 999.4 0.0
23/02:30pm 12.3 3.7 0.0 43 5.1 NW 35 48 19 26 999.4 999.4 0.0
23/02:07pm 12.4 4.3 -0.2 42 5.2 NW 32 50 17 27 999.0 999.0 0.0
23/02:00pm 12.6 4.0 0.2 42 5.2 NW 35 50 19 27 998.9 998.9 0.0
23/01:45pm 13.0 5.5 1.1 44 5.1 NW 30 50 16 27 999.1 999.1 0.0
23/01:30pm 12.2 4.4 1.5 48 4.6 NW 32 43 17 23 999.1 999.1 0.0
23/01:00pm 12.1 5.7 3.4 55 3.9 NW 26 35 14 19 999.3 999.3 0.0
23/12:30pm 11.3 6.1 3.4 58 3.5 NW 20 26 11 14 999.4 999.4 0.0
23/12:00pm 10.3 6.0 3.2 61 3.1 NNW 15 26 8 14 999.8 999.8 0.0
23/11:30am 10.7 5.8 4.0 63 3.0 NNW 19 28 10 15 1000.3 1000.3 0.0
23/11:00am 10.3 6.0 3.2 61 3.1 N 15 19 8 10 1000.6 1000.6 0.0
23/10:30am 10.1 6.2 3.2 62 3.0 N 13 19 7 10 1000.6 1000.6 0.0
23/10:00am 9.5 5.6 3.6 66 2.6 N 13 17 7 9 1000.8 1000.8 0.0
23/09:30am 9.3 5.5 3.8 68 2.4 NNW 13 20 7 11 1000.9 1000.9 0.0
23/09:00am 9.1 5.6 3.3 67 2.5 N 11 15 6 8 1001.1 1001.1 0.0
23/08:30am 8.9 5.9 3.9 71 2.2 N 9 13 5 7 1000.7 1000.7 0.0
23/08:00am 9.1 5.9 3.3 67 2.5 N 9 15 5 8 1000.8 1000.8 0.0
23/07:30am 8.9 4.7 3.6 69 2.3 NNW 15 22 8 12 1000.5 1000.5 0.0
23/07:00am 9.3 4.7 3.6 67 2.5 N 17 24 9 13 1001.0 1001.0 0.0
23/06:30am 9.9 6.4 3.3 63 2.9 NNW 11 17 6 9 1001.2 1001.2 0.0
23/06:00am 10.1 6.5 3.2 62 3.0 NW 11 15 6 8 1001.1 1001.1 0.0
23/05:30am 10.1 6.5 2.7 60 3.2 NNW 11 13 6 7 1000.9 1000.9 0.0
23/05:00am 10.0 7.3 2.8 61 3.1 NW 6 7 3 4 1000.7 1000.7 0.0
23/04:30am 10.3 5.9 2.9 60 3.2 NW 15 22 8 12 1000.5 1000.5 0.0
23/04:00am 11.4 6.5 1.8 51 4.1 NNW 17 26 9 14 1000.3 1000.3 0.0
23/03:30am 11.5 5.3 2.0 52 4.1 NNW 24 33 13 18 1000.2 1000.2 0.0
23/03:00am 11.5 5.4 2.6 54 3.9 NNW 24 35 13 19 1000.3 1000.3 0.0
23/02:30am 11.6 5.6 3.5 57 3.6 NNW 24 32 13 17 1000.8 1000.8 0.0
23/02:00am 11.2 6.1 4.1 61 3.2 NNW 20 30 11 16 1000.9 1000.9 0.0
23/01:30am 10.7 4.9 4.5 65 2.8 NW 24 30 13 16 1000.8 1000.8 0.0
23/01:00am 11.7 1.7 2.2 52 4.1 NW 44 59 24 32 1001.0 1001.0 0.0
23/12:30am 11.9 4.0 2.5 52 4.1 NW 33 50 18 27 1000.9 1000.9 0.0
23/12:00am 11.9 4.9 4.2 59 3.5 WNW 30 43 16 23 1001.6 1001.6 0.0
 
Date/Time
EST
Temp
°C
App
Temp
°C
Dew
Point
°C
Rel
Hum
%
Delta-T
°C
Wind Press
QNH
hPa
Press
MSL
hPa
Rain since
9am
mm
Dir  Spd
km/h
Gust
km/h
Spd
kts
Gust
kts
22/11:50pm 13.0 6.1 2.6 49 4.6 WNW 28 46 15 25 1001.6 1001.6 0.0
22/11:30pm 13.1 8.3 4.9 57 3.8 N 19 28 10 15 1001.0 1001.0 0.0
22/11:00pm 13.3 6.8 4.7 56 4.0 N 28 35 15 19 1000.5 1000.5 0.0
22/10:30pm 13.4 5.9 4.5 55 4.1 N 33 48 18 26 1000.2 1000.2 0.0
22/10:00pm 13.7 6.3 4.1 52 4.4 N 32 52 17 28 999.9 999.9 0.0
22/09:30pm 13.4 5.9 4.5 55 4.1 N 33 50 18 27 1000.0 1000.0 0.0
22/09:00pm 13.0 5.2 5.1 58 3.7 N 35 52 19 28 1000.5 1000.5 0.0
22/08:46pm 13.3 5.1 4.7 56 4.0 N 37 56 20 30 1000.4 1000.4 0.0
22/08:30pm 13.3 5.5 4.7 56 4.0 N 35 52 19 28 1000.4 1000.4 0.0
22/08:00pm 13.3 4.3 4.4 55 4.1 N 41 59 22 32 1000.3 1000.3 0.0
22/07:30pm 12.9 4.7 4.9 58 3.7 N 37 54 20 29 1000.3 1000.3 0.0
22/07:00pm 13.1 5.6 4.7 56 3.9 N 33 48 18 26 1000.6 1000.6 0.0
22/06:50pm 13.0 6.1 4.8 57 3.8 NNE 30 50 16 27 1000.7 1000.7 0.0
22/06:30pm 13.3 7.6 4.7 56 4.0 NNE 24 33 13 18 1000.7 1000.7 0.0
22/06:00pm 13.5 7.0 4.9 56 4.0 NNE 28 41 15 22 1000.8 1000.8 0.0
22/05:30pm 13.7 7.2 4.7 54 4.2 NNE 28 39 15 21 1001.5 1001.5 0.0
22/05:00pm 14.0 7.4 4.0 51 4.6 N 28 41 15 22 1001.7 1001.7 0.0
22/04:30pm 14.2 7.5 3.7 49 4.8 NNE 28 39 15 21 1001.7 1001.7 0.0
22/04:00pm 14.7 7.6 3.8 48 5.0 N 30 43 16 23 1001.5 1001.5 0.0
22/03:31pm 15.5 8.0 3.3 44 5.6 N 32 50 17 27 1001.8 1001.8 0.0
22/03:30pm 15.5 7.8 3.3 44 5.6 N 33 50 18 27 1001.7 1001.7 0.0
22/03:05pm 15.9 8.3 3.0 42 5.9 N 32 50 17 27 1002.0 1002.0 0.0
22/03:00pm 15.9 8.4 3.6 44 5.7 N 32 44 17 24 1002.0 1002.0 0.0
22/02:49pm 15.6 8.2 4.0 46 5.4 N 32 50 17 27 1002.1 1002.1 0.0
22/02:30pm 15.3 8.3 4.1 47 5.2 N 30 39 16 21 1002.0 1002.0 0.0
22/02:00pm 16.6 9.1 3.2 40 6.2 N 32 50 17 27 1001.9 1001.9 0.0
22/01:54pm 16.2 8.9 4.3 45 5.6 N 32 50 17 27 1002.0 1002.0 0.0
22/01:30pm 15.6 9.6 5.4 50 4.9 N 26 37 14 20 1002.2 1002.2 0.0
22/01:00pm 16.4 9.4 5.9 50 5.1 N 32 41 17 22 1002.8 1002.8 0.0
22/12:30pm 16.4 9.8 6.2 51 5.0 N 30 41 16 22 1003.3 1003.3 0.0
22/12:00pm 15.2 8.1 6.4 55 4.3 N 33 48 18 26 1003.8 1003.8 0.0
22/11:30am 14.8 7.3 6.1 56 4.2 N 35 48 19 26 1004.5 1004.5 0.0
22/11:00am 14.9 8.3 6.0 55 4.3 N 30 39 16 21 1004.9 1004.9 0.0
22/10:30am 14.7 8.0 5.7 55 4.3 N 30 44 16 24 1005.4 1005.4 0.0
22/10:00am 14.1 8.2 5.7 57 4.0 N 26 37 14 20 1005.8 1005.8 0.0
22/09:30am 13.3 7.4 5.7 60 3.6 N 26 41 14 22 1006.1 1006.1 0.0
22/09:00am 11.8 6.7 5.8 66 2.8 NNW 22 33 12 18 1006.1 1006.1 0.0
22/08:30am 10.7 6.9 5.7 71 2.3 NNW 15 22 8 12 1006.1 1006.1 0.0
22/08:00am 9.6 4.1 5.9 78 1.7 NNW 24 32 13 17 1006.1 1006.1 0.0
22/07:30am 9.5 3.9 5.6 76 1.8 NNW 24 33 13 18 1005.9 1005.9 0.0
22/07:00am 9.7 5.0 5.3 74 2.0 NNW 19 26 10 14 1006.0 1006.0 0.0
22/06:30am 9.0 4.6 4.7 74 1.9 NW 17 24 9 13 1006.3 1006.3 0.0
22/06:00am 9.2 4.8 4.5 72 2.1 NNW 17 24 9 13 1006.2 1006.2 0.0
22/05:30am 9.1 5.1 4.9 75 1.9 NNW 15 24 8 13 1006.2 1006.2 0.0
22/05:00am 8.7 3.9 4.4 74 1.9 NNW 19 30 10 16 1006.7 1006.7 0.0
22/04:30am 9.2 4.6 3.7 68 2.4 N 17 32 9 17 1006.7 1006.7 0.0
22/04:00am 9.3 4.7 3.6 67 2.5 N 17 26 9 14 1006.6 1006.6 0.0
22/03:30am 9.4 4.1 3.2 65 2.7 N 20 35 11 19 1006.6 1006.6 0.0
22/03:00am 8.7 2.7 3.1 68 2.4 NNW 24 35 13 19 1006.6 1006.6 0.0
22/02:30am 8.9 5.3 2.8 65 2.6 N 11 20 6 11 1007.0 1007.0 0.0
22/02:00am 8.5 4.8 2.6 66 2.5 NNW 11 17 6 9 1006.9 1006.9 0.0
22/01:30am 8.4 3.6 2.7 67 2.4 NNW 17 26 9 14 1006.9 1006.9 0.0
22/01:00am 8.7 4.2 2.3 64 2.7 NNW 15 22 8 12 1007.0 1007.0 0.0
22/12:30am 8.3 5.3 2.3 66 2.5 N 7 11 4 6 1007.1 1007.1 0.0
22/12:00am 8.4 5.3 1.6 62 2.8 NNW 7 11 4 6 1007.5 1007.5 0.0
 
Date/Time
EST
Temp
°C
App
Temp
°C
Dew
Point
°C
Rel
Hum
%
Delta-T
°C
Wind Press
QNH
hPa
Press
MSL
hPa
Rain since
9am
mm
Dir  Spd
km/h
Gust
km/h
Spd
kts
Gust
kts
21/11:30pm 7.8 3.6 1.7 65 2.5 NNW 13 17 7 9 1007.5 1007.5 0.0
21/11:00pm 8.7 4.0 1.1 59 3.1 N 15 19 8 10 1007.6 1007.6 0.0
21/10:30pm 8.4 3.8 1.6 62 2.8 N 15 19 8 10 1007.7 1007.7 0.0
21/10:00pm 8.7 4.1 1.4 60 3.0 N 15 22 8 12 1007.7 1007.7 0.0
21/09:30pm 8.7 3.8 1.7 61 2.9 NNW 17 26 9 14 1007.5 1007.5 0.0
21/09:00pm 8.0 3.8 1.7 64 2.6 NNW 13 17 7 9 1007.2 1007.2 0.0
21/08:30pm 7.2 3.5 2.1 70 2.1 NNW 11 15 6 8 1007.1 1007.1 0.0
21/08:00pm 8.4 4.9 1.3 61 2.9 N 9 15 5 8 1006.8 1006.8 0.0
21/07:30pm 8.7 4.8 1.1 59 3.1 NNW 11 19 6 10 1006.4 1006.4 0.0
21/07:00pm 9.1 4.9 1.9 60 3.0 NNW 13 20 7 11 1006.1 1006.1 0.0
21/06:30pm 9.8 3.4 0.8 53 3.7 NW 24 33 13 18 1005.3 1005.3 0.0
21/06:00pm 10.5 3.7 0.5 50 4.1 NW 26 35 14 19 1004.7 1004.7 0.0
21/05:30pm 10.7 2.8 0.8 50 4.1 NW 32 39 17 21 1004.2 1004.2 0.0
21/05:00pm 11.1 5.6 1.7 52 4.0 NW 20 32 11 17 1003.5 1003.5 0.0
21/04:30pm 12.0 4.0 1.5 48 4.5 NW 33 48 18 26 1003.0 1003.0 0.0
21/04:00pm 12.7 4.9 1.6 46 4.8 NW 32 46 17 25 1001.8 1001.8 0.0
21/03:30pm 13.4 5.4 0.4 41 5.5 NW 32 50 17 27 1001.3 1001.3 0.0
21/03:11pm 13.3 3.2 0.6 42 5.3 NW 43 61 23 33 1001.1 1001.1 0.0
21/03:00pm 13.5 3.4 0.2 40 5.6 NW 43 57 23 31 1000.8 1000.8 0.0
21/02:47pm 13.6 4.6 0.0 39 5.7 NW 37 56 20 30 1000.7 1000.7 0.0
21/02:30pm 14.0 5.5 1.0 41 5.6 NW 35 50 19 27 1000.6 1000.6 0.0
21/02:00pm 14.2 4.2 1.3 41 5.6 NW 43 61 23 33 1000.2 1000.2 0.0
21/01:30pm 14.9 4.8 1.5 40 5.8 NW 44 65 24 35 999.8 999.8 0.0
21/01:00pm 15.2 5.2 1.9 40 5.9 NW 44 63 24 34 999.0 999.0 0.0
21/12:56pm 15.4 6.0 2.2 41 5.9 NW 41 61 22 33 998.8 998.8 0.0
21/12:30pm 15.2 5.3 1.9 40 5.9 NW 43 59 23 32 998.7 998.7 0.0
21/12:09pm 15.4 6.3 1.9 40 6.0 NW 39 57 21 31 999.0 999.0 0.0
21/12:00pm 15.5 5.6 1.8 39 6.1 NW 43 57 23 31 998.7 998.7 0.0
21/11:59am 15.5 5.6 1.5 38 6.1 NW 43 61 23 33 998.7 998.7 0.0
21/11:30am 14.8 7.7 5.4 53 4.5 NNW 32 54 17 29 998.8 998.8 0.0
21/11:16am 14.2 7.2 6.1 58 3.9 NNW 32 50 17 27 998.8 998.8 0.0
21/11:00am 14.0 6.9 6.6 61 3.6 NNW 33 50 18 27 998.9 998.9 0.0
21/10:30am 13.4 5.9 6.1 61 3.5 NNW 35 59 19 32 999.6 999.6 0.0
21/10:00am 13.2 5.8 4.8 56 3.9 NNW 33 52 18 28 1000.2 1000.2 0.0
21/09:30am 12.9 6.4 4.7 57 3.8 N 28 50 15 27 1000.2 1000.2 0.0
21/09:29am 12.9 6.3 4.4 56 3.9 N 28 48 15 26 1000.2 1000.2 0.0
21/09:00am 12.6 6.0 4.3 57 3.8 N 28 41 15 22 1000.5 1000.5 0.0
21/08:43am 12.7 5.7 4.2 56 3.9 N 30 48 16 26 1000.2 1000.2 0.0
21/08:30am 12.9 5.5 3.9 54 4.1 N 32 44 17 24 1000.2 1000.2 0.0
21/08:00am 12.7 5.6 3.6 54 4.1 N 30 44 16 24 1000.4 1000.4 0.0
21/07:59am 12.5 5.5 3.9 56 3.9 N 30 44 16 24 1000.5 1000.5 0.0
21/07:30am 10.3 5.8 4.0 65 2.8 NE 17 24 9 13 1001.5 1001.5 0.0
21/07:00am 10.5 5.4 4.0 64 2.9 NE 20 28 11 15 1002.1 1002.1 0.0
21/06:30am 10.7 5.1 3.7 62 3.1 NE 22 30 12 16 1002.4 1002.4 0.0
21/06:00am 11.0 5.8 3.8 61 3.2 NNE 20 28 11 15 1003.2 1003.2 0.0
21/05:30am 11.1 5.6 4.0 61 3.2 NNE 22 28 12 15 1003.5 1003.5 0.0
21/05:00am 11.0 6.0 3.8 61 3.2 NNE 19 28 10 15 1004.2 1004.2 0.0
21/04:30am 11.5 5.6 3.9 59 3.4 NNE 24 35 13 19 1004.3 1004.3 0.0
21/04:00am 11.7 5.5 4.2 60 3.4 NNE 26 39 14 21 1004.8 1004.8 0.0
21/03:30am 11.8 5.6 4.3 60 3.4 NNE 26 37 14 20 1005.7 1005.7 0.0
21/03:00am 11.4 6.3 4.3 61 3.2 NNE 20 32 11 17 1006.2 1006.2 0.0
21/02:30am 11.4 6.5 5.1 65 2.9 NNE 20 32 11 17 1006.7 1006.7 0.0
21/02:00am 10.9 6.5 5.0 67 2.7 N 17 26 9 14 1007.4 1007.4 0.0
21/01:30am 10.9 6.5 5.0 67 2.7 N 17 24 9 13 1007.7 1007.7 0.0
21/01:00am 11.3 6.6 5.2 66 2.8 N 19 26 10 14 1007.9 1007.9 0.0
21/12:30am 11.1 4.3 5.2 67 2.7 N 30 39 16 21 1008.2 1008.2 0.0

Latest Capital City Observations: Canberra | Sydney | Melbourne | Brisbane | Adelaide | Perth | Hobart | Darwin

Other formats

Comma delimited format used in spreadsheet applications
http://www.bom.gov.au/fwo/IDT60901/IDT60901.94975.axf

JavaScript Object Notation format (JSON) in row-major order
http://www.bom.gov.au/fwo/IDT60901/IDT60901.94975.json

Data quality

Most of these data are generated automatically and are frequently updated. Quality checks on data are not normally performed. It is possible for incorrect values to appear. Refer to information at About Latest Weather Observations and please check the disclaimer before using these data.